sensor_id;sensor_type;location;lat;lon;timestamp;P1;durP1;ratioP1;P2;durP2;ratioP2
64674;SDS011;51090;51.512;11.332;2023-07-20T00:01:45;1.90;;;1.30;;
64674;SDS011;51090;51.512;11.332;2023-07-20T00:04:15;1.17;;;1.08;;
64674;SDS011;51090;51.512;11.332;2023-07-20T00:06:41;2.08;;;1.40;;
64674;SDS011;51090;51.512;11.332;2023-07-20T00:09:08;6.22;;;1.10;;
64674;SDS011;51090;51.512;11.332;2023-07-20T00:11:36;2.40;;;1.27;;
64674;SDS011;51090;51.512;11.332;2023-07-20T00:14:06;4.85;;;1.33;;
64674;SDS011;51090;51.512;11.332;2023-07-20T00:16:36;1.92;;;1.13;;
64674;SDS011;51090;51.512;11.332;2023-07-20T00:19:03;1.27;;;1.17;;
64674;SDS011;51090;51.512;11.332;2023-07-20T00:21:31;1.60;;;0.98;;
64674;SDS011;51090;51.512;11.332;2023-07-20T00:23:57;1.27;;;1.08;;
64674;SDS011;51090;51.512;11.332;2023-07-20T00:26:23;2.85;;;1.25;;
64674;SDS011;51090;51.512;11.332;2023-07-20T00:28:50;1.50;;;1.20;;
64674;SDS011;51090;51.512;11.332;2023-07-20T00:31:17;1.98;;;1.38;;
64674;SDS011;51090;51.512;11.332;2023-07-20T00:33:42;1.92;;;1.30;;
64674;SDS011;51090;51.512;11.332;2023-07-20T00:36:08;1.33;;;1.00;;
64674;SDS011;51090;51.512;11.332;2023-07-20T00:38:34;2.08;;;1.35;;
64674;SDS011;51090;51.512;11.332;2023-07-20T00:41:01;1.85;;;1.45;;
64674;SDS011;51090;51.512;11.332;2023-07-20T00:43:27;2.05;;;1.20;;
64674;SDS011;51090;51.512;11.332;2023-07-20T00:45:53;2.08;;;1.38;;
64674;SDS011;51090;51.512;11.332;2023-07-20T00:48:19;2.58;;;1.35;;
64674;SDS011;51090;51.512;11.332;2023-07-20T00:50:45;1.90;;;1.40;;
64674;SDS011;51090;51.512;11.332;2023-07-20T00:53:12;1.20;;;1.00;;
64674;SDS011;51090;51.512;11.332;2023-07-20T00:55:37;1.60;;;1.30;;
64674;SDS011;51090;51.512;11.332;2023-07-20T00:58:04;1.33;;;1.13;;
64674;SDS011;51090;51.512;11.332;2023-07-20T01:00:30;2.03;;;1.55;;
64674;SDS011;51090;51.512;11.332;2023-07-20T01:02:56;1.70;;;1.17;;
64674;SDS011;51090;51.512;11.332;2023-07-20T01:05:23;4.60;;;1.30;;
64674;SDS011;51090;51.512;11.332;2023-07-20T01:08:06;3.17;;;1.40;;
64674;SDS011;51090;51.512;11.332;2023-07-20T01:10:56;2.63;;;1.10;;
64674;SDS011;51090;51.512;11.332;2023-07-20T01:13:43;1.92;;;1.25;;
64674;SDS011;51090;51.512;11.332;2023-07-20T01:16:09;3.28;;;1.75;;
64674;SDS011;51090;51.512;11.332;2023-07-20T01:18:35;1.90;;;1.42;;
64674;SDS011;51090;51.512;11.332;2023-07-20T01:21:05;1.98;;;1.48;;
64674;SDS011;51090;51.512;11.332;2023-07-20T01:32:40;2.20;;;1.10;;
64674;SDS011;51090;51.512;11.332;2023-07-20T01:35:10;2.85;;;1.00;;
64674;SDS011;51090;51.512;11.332;2023-07-20T01:37:42;2.05;;;1.20;;
64674;SDS011;51090;51.512;11.332;2023-07-20T01:40:11;1.92;;;1.52;;
64674;SDS011;51090;51.512;11.332;2023-07-20T01:42:45;4.50;;;1.50;;
64674;SDS011;51090;51.512;11.332;2023-07-20T01:45:12;1.52;;;1.20;;
64674;SDS011;51090;51.512;11.332;2023-07-20T01:47:38;1.50;;;1.25;;
64674;SDS011;51090;51.512;11.332;2023-07-20T01:50:04;1.90;;;1.30;;
64674;SDS011;51090;51.512;11.332;2023-07-20T01:52:31;1.50;;;1.30;;
64674;SDS011;51090;51.512;11.332;2023-07-20T01:54:57;1.83;;;1.38;;
64674;SDS011;51090;51.512;11.332;2023-07-20T01:57:23;4.07;;;1.45;;
64674;SDS011;51090;51.512;11.332;2023-07-20T01:59:52;2.53;;;1.35;;
64674;SDS011;51090;51.512;11.332;2023-07-20T02:02:19;1.70;;;1.60;;
64674;SDS011;51090;51.512;11.332;2023-07-20T02:04:46;4.20;;;1.50;;
64674;SDS011;51090;51.512;11.332;2023-07-20T02:07:13;2.55;;;1.30;;
64674;SDS011;51090;51.512;11.332;2023-07-20T02:09:39;2.75;;;1.50;;
64674;SDS011;51090;51.512;11.332;2023-07-20T02:12:05;1.38;;;1.15;;
64674;SDS011;51090;51.512;11.332;2023-07-20T02:14:34;3.95;;;1.40;;
64674;SDS011;51090;51.512;11.332;2023-07-20T02:17:01;1.38;;;1.00;;
64674;SDS011;51090;51.512;11.332;2023-07-20T02:19:28;2.72;;;1.67;;
64674;SDS011;51090;51.512;11.332;2023-07-20T02:21:55;1.70;;;1.50;;
64674;SDS011;51090;51.512;11.332;2023-07-20T02:24:23;4.70;;;1.30;;
64674;SDS011;51090;51.512;11.332;2023-07-20T02:26:51;6.38;;;1.90;;
64674;SDS011;51090;51.512;11.332;2023-07-20T02:29:17;3.03;;;1.48;;
64674;SDS011;51090;51.512;11.332;2023-07-20T02:31:43;2.42;;;1.40;;
64674;SDS011;51090;51.512;11.332;2023-07-20T02:34:09;2.53;;;1.40;;
64674;SDS011;51090;51.512;11.332;2023-07-20T02:36:35;2.85;;;1.20;;
64674;SDS011;51090;51.512;11.332;2023-07-20T02:39:01;2.35;;;1.25;;
64674;SDS011;51090;51.512;11.332;2023-07-20T02:41:30;2.30;;;1.70;;
64674;SDS011;51090;51.512;11.332;2023-07-20T02:43:58;7.63;;;2.00;;
64674;SDS011;51090;51.512;11.332;2023-07-20T02:46:24;2.10;;;1.40;;
64674;SDS011;51090;51.512;11.332;2023-07-20T02:48:51;1.98;;;1.40;;
64674;SDS011;51090;51.512;11.332;2023-07-20T02:51:17;2.50;;;1.42;;
64674;SDS011;51090;51.512;11.332;2023-07-20T02:53:43;3.83;;;2.00;;
64674;SDS011;51090;51.512;11.332;2023-07-20T02:56:09;3.65;;;2.00;;
64674;SDS011;51090;51.512;11.332;2023-07-20T02:58:34;3.22;;;1.52;;
64674;SDS011;51090;51.512;11.332;2023-07-20T03:01:03;4.30;;;1.65;;
64674;SDS011;51090;51.512;11.332;2023-07-20T03:03:29;5.38;;;1.75;;
64674;SDS011;51090;51.512;11.332;2023-07-20T03:05:55;1.40;;;1.30;;
64674;SDS011;51090;51.512;11.332;2023-07-20T03:08:22;1.80;;;1.42;;
64674;SDS011;51090;51.512;11.332;2023-07-20T03:10:49;4.80;;;1.90;;
64674;SDS011;51090;51.512;11.332;2023-07-20T03:13:14;5.43;;;1.45;;
64674;SDS011;51090;51.512;11.332;2023-07-20T03:15:41;1.83;;;1.42;;
64674;SDS011;51090;51.512;11.332;2023-07-20T03:18:08;2.55;;;1.67;;
64674;SDS011;51090;51.512;11.332;2023-07-20T03:20:35;3.65;;;1.90;;
64674;SDS011;51090;51.512;11.332;2023-07-20T03:23:03;2.90;;;2.03;;
64674;SDS011;51090;51.512;11.332;2023-07-20T03:25:29;3.22;;;1.83;;
64674;SDS011;51090;51.512;11.332;2023-07-20T03:27:54;4.35;;;1.90;;
64674;SDS011;51090;51.512;11.332;2023-07-20T03:30:20;3.38;;;1.90;;
64674;SDS011;51090;51.512;11.332;2023-07-20T03:32:46;6.78;;;2.38;;
64674;SDS011;51090;51.512;11.332;2023-07-20T03:35:12;4.93;;;2.42;;
64674;SDS011;51090;51.512;11.332;2023-07-20T03:37:38;3.40;;;2.38;;
64674;SDS011;51090;51.512;11.332;2023-07-20T03:40:03;3.63;;;2.33;;
64674;SDS011;51090;51.512;11.332;2023-07-20T03:42:30;3.05;;;2.30;;
64674;SDS011;51090;51.512;11.332;2023-07-20T03:44:56;5.50;;;1.80;;
64674;SDS011;51090;51.512;11.332;2023-07-20T03:47:22;2.30;;;1.80;;
64674;SDS011;51090;51.512;11.332;2023-07-20T03:49:49;2.67;;;1.77;;
64674;SDS011;51090;51.512;11.332;2023-07-20T03:52:16;2.55;;;2.05;;
64674;SDS011;51090;51.512;11.332;2023-07-20T03:54:43;5.00;;;1.92;;
64674;SDS011;51090;51.512;11.332;2023-07-20T03:57:09;3.33;;;1.98;;
64674;SDS011;51090;51.512;11.332;2023-07-20T03:59:37;2.85;;;1.90;;
64674;SDS011;51090;51.512;11.332;2023-07-20T04:02:04;3.05;;;2.17;;
64674;SDS011;51090;51.512;11.332;2023-07-20T04:04:31;3.15;;;1.95;;
64674;SDS011;51090;51.512;11.332;2023-07-20T04:06:58;4.32;;;2.13;;
64674;SDS011;51090;51.512;11.332;2023-07-20T04:09:24;4.97;;;1.92;;
64674;SDS011;51090;51.512;11.332;2023-07-20T04:11:49;8.95;;;2.50;;
64674;SDS011;51090;51.512;11.332;2023-07-20T04:14:15;2.35;;;1.90;;
64674;SDS011;51090;51.512;11.332;2023-07-20T04:16:41;2.85;;;2.05;;
64674;SDS011;51090;51.512;11.332;2023-07-20T04:19:06;2.55;;;2.17;;
64674;SDS011;51090;51.512;11.332;2023-07-20T04:21:32;4.45;;;2.28;;
64674;SDS011;51090;51.512;11.332;2023-07-20T04:23:58;3.15;;;2.08;;
64674;SDS011;51090;51.512;11.332;2023-07-20T04:26:28;4.45;;;2.47;;
64674;SDS011;51090;51.512;11.332;2023-07-20T04:28:55;8.88;;;2.50;;
64674;SDS011;51090;51.512;11.332;2023-07-20T04:31:21;2.33;;;1.80;;
64674;SDS011;51090;51.512;11.332;2023-07-20T04:33:48;5.68;;;2.25;;
64674;SDS011;51090;51.512;11.332;2023-07-20T04:36:15;3.75;;;2.10;;
64674;SDS011;51090;51.512;11.332;2023-07-20T04:38:47;2.22;;;1.80;;
64674;SDS011;51090;51.512;11.332;2023-07-20T04:41:13;3.95;;;2.45;;
64674;SDS011;51090;51.512;11.332;2023-07-20T04:43:43;5.88;;;2.58;;
64674;SDS011;51090;51.512;11.332;2023-07-20T04:46:10;3.35;;;2.53;;
64674;SDS011;51090;51.512;11.332;2023-07-20T04:48:37;4.45;;;2.63;;
64674;SDS011;51090;51.512;11.332;2023-07-20T04:51:05;3.72;;;2.70;;
64674;SDS011;51090;51.512;11.332;2023-07-20T04:53:32;3.85;;;2.60;;
64674;SDS011;51090;51.512;11.332;2023-07-20T04:56:01;3.35;;;2.60;;
64674;SDS011;51090;51.512;11.332;2023-07-20T04:58:28;4.65;;;3.00;;
64674;SDS011;51090;51.512;11.332;2023-07-20T05:00:54;5.90;;;2.53;;
64674;SDS011;51090;51.512;11.332;2023-07-20T05:03:21;3.67;;;2.92;;
64674;SDS011;51090;51.512;11.332;2023-07-20T05:24:00;4.93;;;3.00;;
64674;SDS011;51090;51.512;11.332;2023-07-20T05:26:28;8.48;;;3.42;;
64674;SDS011;51090;51.512;11.332;2023-07-20T05:28:55;3.63;;;3.05;;
64674;SDS011;51090;51.512;11.332;2023-07-20T05:31:26;5.25;;;2.92;;
64674;SDS011;51090;51.512;11.332;2023-07-20T05:33:57;4.65;;;2.88;;
64674;SDS011;51090;51.512;11.332;2023-07-20T05:38:50;5.85;;;3.30;;
64674;SDS011;51090;51.512;11.332;2023-07-20T05:41:16;5.90;;;3.25;;
64674;SDS011;51090;51.512;11.332;2023-07-20T05:43:45;3.05;;;2.72;;
64674;SDS011;51090;51.512;11.332;2023-07-20T05:46:12;5.47;;;4.00;;
64674;SDS011;51090;51.512;11.332;2023-07-20T05:48:38;7.53;;;4.50;;
64674;SDS011;51090;51.512;11.332;2023-07-20T05:51:05;7.35;;;4.95;;
64674;SDS011;51090;51.512;11.332;2023-07-20T05:53:32;7.22;;;4.88;;
64674;SDS011;51090;51.512;11.332;2023-07-20T05:55:58;7.20;;;4.88;;
64674;SDS011;51090;51.512;11.332;2023-07-20T05:58:24;5.03;;;4.10;;
64674;SDS011;51090;51.512;11.332;2023-07-20T06:00:50;4.65;;;4.03;;
64674;SDS011;51090;51.512;11.332;2023-07-20T06:03:16;8.57;;;3.65;;
64674;SDS011;51090;51.512;11.332;2023-07-20T06:05:43;5.75;;;3.60;;
64674;SDS011;51090;51.512;11.332;2023-07-20T06:08:10;5.50;;;3.78;;
64674;SDS011;51090;51.512;11.332;2023-07-20T06:10:36;5.13;;;2.90;;
64674;SDS011;51090;51.512;11.332;2023-07-20T06:13:01;8.85;;;3.25;;
64674;SDS011;51090;51.512;11.332;2023-07-20T06:15:31;3.05;;;2.40;;
64674;SDS011;51090;51.512;11.332;2023-07-20T06:18:01;2.90;;;2.63;;
64674;SDS011;51090;51.512;11.332;2023-07-20T06:20:29;3.35;;;2.75;;
64674;SDS011;51090;51.512;11.332;2023-07-20T06:22:55;4.22;;;2.53;;
64674;SDS011;51090;51.512;11.332;2023-07-20T06:25:21;5.57;;;2.67;;
64674;SDS011;51090;51.512;11.332;2023-07-20T06:27:49;3.95;;;2.33;;
64674;SDS011;51090;51.512;11.332;2023-07-20T06:30:21;4.68;;;1.90;;
64674;SDS011;51090;51.512;11.332;2023-07-20T06:33:18;2.75;;;1.60;;
64674;SDS011;51090;51.512;11.332;2023-07-20T06:35:47;4.47;;;2.40;;
64674;SDS011;51090;51.512;11.332;2023-07-20T06:38:13;1.90;;;1.58;;
64674;SDS011;51090;51.512;11.332;2023-07-20T06:40:39;1.95;;;1.55;;
64674;SDS011;51090;51.512;11.332;2023-07-20T06:43:05;3.78;;;2.13;;
64674;SDS011;51090;51.512;11.332;2023-07-20T06:45:31;5.47;;;2.15;;
64674;SDS011;51090;51.512;11.332;2023-07-20T06:47:57;1.77;;;1.10;;
64674;SDS011;51090;51.512;11.332;2023-07-20T06:50:23;1.92;;;1.42;;
64674;SDS011;51090;51.512;11.332;2023-07-20T06:52:48;4.53;;;1.70;;
64674;SDS011;51090;51.512;11.332;2023-07-20T06:55:15;4.57;;;1.50;;
64674;SDS011;51090;51.512;11.332;2023-07-20T06:57:41;3.85;;;1.92;;
64674;SDS011;51090;51.512;11.332;2023-07-20T07:00:07;1.85;;;1.23;;
64674;SDS011;51090;51.512;11.332;2023-07-20T07:02:34;1.40;;;0.98;;
64674;SDS011;51090;51.512;11.332;2023-07-20T07:05:00;1.70;;;1.25;;
64674;SDS011;51090;51.512;11.332;2023-07-20T07:07:26;3.38;;;1.73;;
64674;SDS011;51090;51.512;11.332;2023-07-20T07:09:52;1.75;;;1.20;;
64674;SDS011;51090;51.512;11.332;2023-07-20T07:12:17;3.08;;;1.42;;
64674;SDS011;51090;51.512;11.332;2023-07-20T07:14:43;2.55;;;1.52;;
64674;SDS011;51090;51.512;11.332;2023-07-20T07:17:09;2.55;;;1.40;;
64674;SDS011;51090;51.512;11.332;2023-07-20T07:19:34;2.35;;;1.42;;
64674;SDS011;51090;51.512;11.332;2023-07-20T07:22:01;2.85;;;1.52;;
64674;SDS011;51090;51.512;11.332;2023-07-20T07:24:27;1.48;;;1.20;;
64674;SDS011;51090;51.512;11.332;2023-07-20T07:27:01;6.78;;;1.35;;
64674;SDS011;51090;51.512;11.332;2023-07-20T07:29:28;1.85;;;1.17;;
64674;SDS011;51090;51.512;11.332;2023-07-20T07:31:54;2.03;;;1.00;;
64674;SDS011;51090;51.512;11.332;2023-07-20T07:34:20;1.65;;;1.30;;
64674;SDS011;51090;51.512;11.332;2023-07-20T07:36:46;2.30;;;1.30;;
64674;SDS011;51090;51.512;11.332;2023-07-20T07:39:12;1.65;;;0.98;;
64674;SDS011;51090;51.512;11.332;2023-07-20T07:41:38;1.05;;;0.85;;
64674;SDS011;51090;51.512;11.332;2023-07-20T07:44:03;0.80;;;0.80;;
64674;SDS011;51090;51.512;11.332;2023-07-20T07:46:29;1.02;;;0.68;;
64674;SDS011;51090;51.512;11.332;2023-07-20T07:48:55;1.00;;;0.73;;
64674;SDS011;51090;51.512;11.332;2023-07-20T07:51:21;1.05;;;0.70;;
64674;SDS011;51090;51.512;11.332;2023-07-20T07:53:48;0.70;;;0.50;;
64674;SDS011;51090;51.512;11.332;2023-07-20T07:56:15;1.88;;;0.70;;
64674;SDS011;51090;51.512;11.332;2023-07-20T08:01:16;0.40;;;0.40;;
64674;SDS011;51090;51.512;11.332;2023-07-20T08:03:44;1.15;;;0.60;;
64674;SDS011;51090;51.512;11.332;2023-07-20T08:06:12;1.45;;;0.70;;
64674;SDS011;51090;51.512;11.332;2023-07-20T08:08:39;2.15;;;1.30;;
64674;SDS011;51090;51.512;11.332;2023-07-20T08:11:05;6.55;;;1.85;;
64674;SDS011;51090;51.512;11.332;2023-07-20T08:13:31;3.38;;;0.85;;
64674;SDS011;51090;51.512;11.332;2023-07-20T08:15:57;2.83;;;0.90;;
64674;SDS011;51090;51.512;11.332;2023-07-20T08:18:23;1.20;;;0.80;;
64674;SDS011;51090;51.512;11.332;2023-07-20T08:20:49;1.90;;;0.82;;
64674;SDS011;51090;51.512;11.332;2023-07-20T08:23:17;2.38;;;0.63;;
64674;SDS011;51090;51.512;11.332;2023-07-20T08:25:45;1.83;;;0.95;;
64674;SDS011;51090;51.512;11.332;2023-07-20T08:28:11;1.85;;;0.98;;
64674;SDS011;51090;51.512;11.332;2023-07-20T08:30:40;2.13;;;0.70;;
64674;SDS011;51090;51.512;11.332;2023-07-20T08:33:07;1.83;;;1.05;;
64674;SDS011;51090;51.512;11.332;2023-07-20T08:35:34;1.73;;;0.93;;
64674;SDS011;51090;51.512;11.332;2023-07-20T08:38:00;7.53;;;1.25;;
64674;SDS011;51090;51.512;11.332;2023-07-20T08:40:27;1.58;;;0.93;;
64674;SDS011;51090;51.512;11.332;2023-07-20T08:42:54;1.42;;;0.70;;
64674;SDS011;51090;51.512;11.332;2023-07-20T08:45:22;1.30;;;0.85;;
64674;SDS011;51090;51.512;11.332;2023-07-20T08:47:50;2.05;;;0.98;;
64674;SDS011;51090;51.512;11.332;2023-07-20T08:50:17;1.65;;;0.90;;
64674;SDS011;51090;51.512;11.332;2023-07-20T08:57:55;1.17;;;0.55;;
64674;SDS011;51090;51.512;11.332;2023-07-20T09:00:24;1.35;;;0.40;;
64674;SDS011;51090;51.512;11.332;2023-07-20T09:02:53;0.65;;;0.35;;
64674;SDS011;51090;51.512;11.332;2023-07-20T09:05:22;1.08;;;0.40;;
64674;SDS011;51090;51.512;11.332;2023-07-20T09:07:50;0.73;;;0.30;;
64674;SDS011;51090;51.512;11.332;2023-07-20T09:10:19;0.13;;;0.13;;
64674;SDS011;51090;51.512;11.332;2023-07-20T09:12:50;0.20;;;0.20;;
64674;SDS011;51090;51.512;11.332;2023-07-20T09:15:17;1.50;;;0.30;;
64674;SDS011;51090;51.512;11.332;2023-07-20T09:17:48;0.40;;;0.20;;
64674;SDS011;51090;51.512;11.332;2023-07-20T09:20:16;0.30;;;0.20;;
64674;SDS011;51090;51.512;11.332;2023-07-20T09:22:44;0.90;;;0.17;;
64674;SDS011;51090;51.512;11.332;2023-07-20T09:25:12;0.32;;;0.20;;
64674;SDS011;51090;51.512;11.332;2023-07-20T09:27:40;0.10;;;0.10;;
64674;SDS011;51090;51.512;11.332;2023-07-20T09:30:08;1.15;;;0.17;;
64674;SDS011;51090;51.512;11.332;2023-07-20T09:32:43;1.85;;;0.30;;
64674;SDS011;51090;51.512;11.332;2023-07-20T09:35:15;0.20;;;0.20;;
64674;SDS011;51090;51.512;11.332;2023-07-20T09:37:47;0.20;;;0.10;;
64674;SDS011;51090;51.512;11.332;2023-07-20T09:40:26;0.45;;;0.20;;
64674;SDS011;51090;51.512;11.332;2023-07-20T09:42:54;1.55;;;0.10;;
64674;SDS011;51090;51.512;11.332;2023-07-20T09:45:35;0.10;;;0.10;;
64674;SDS011;51090;51.512;11.332;2023-07-20T09:48:05;0.15;;;0.15;;
64674;SDS011;51090;51.512;11.332;2023-07-20T09:50:33;0.47;;;0.38;;
64674;SDS011;51090;51.512;11.332;2023-07-20T09:53:14;0.60;;;0.28;;
64674;SDS011;51090;51.512;11.332;2023-07-20T09:55:43;0.45;;;0.32;;
64674;SDS011;51090;51.512;11.332;2023-07-20T09:58:10;0.43;;;0.30;;
64674;SDS011;51090;51.512;11.332;2023-07-20T10:00:36;0.38;;;0.35;;
64674;SDS011;51090;51.512;11.332;2023-07-20T10:03:06;0.28;;;0.28;;
64674;SDS011;51090;51.512;11.332;2023-07-20T10:05:33;0.20;;;0.20;;
64674;SDS011;51090;51.512;11.332;2023-07-20T10:08:03;0.20;;;0.20;;
64674;SDS011;51090;51.512;11.332;2023-07-20T10:10:30;0.55;;;0.38;;
64674;SDS011;51090;51.512;11.332;2023-07-20T10:13:01;0.73;;;0.40;;
64674;SDS011;51090;51.512;11.332;2023-07-20T10:21:19;0.20;;;0.20;;
64674;SDS011;51090;51.512;11.332;2023-07-20T10:23:47;0.30;;;0.30;;
64674;SDS011;51090;51.512;11.332;2023-07-20T10:26:14;0.65;;;0.25;;
64674;SDS011;51090;51.512;11.332;2023-07-20T10:28:40;0.20;;;0.20;;
64674;SDS011;51090;51.512;11.332;2023-07-20T10:31:09;0.50;;;0.30;;
64674;SDS011;51090;51.512;11.332;2023-07-20T10:33:38;0.30;;;0.30;;
64674;SDS011;51090;51.512;11.332;2023-07-20T10:36:05;0.30;;;0.30;;
64674;SDS011;51090;51.512;11.332;2023-07-20T10:41:46;0.38;;;0.30;;
64674;SDS011;51090;51.512;11.332;2023-07-20T10:44:07;0.50;;;0.50;;
64674;SDS011;51090;51.512;11.332;2023-07-20T10:46:43;1.13;;;0.30;;
64674;SDS011;51090;51.512;11.332;2023-07-20T10:49:13;0.50;;;0.50;;
64674;SDS011;51090;51.512;11.332;2023-07-20T10:54:33;0.30;;;0.30;;
64674;SDS011;51090;51.512;11.332;2023-07-20T10:56:55;0.30;;;0.30;;
64674;SDS011;51090;51.512;11.332;2023-07-20T11:01:56;0.57;;;0.52;;
64674;SDS011;51090;51.512;11.332;2023-07-20T11:04:38;1.00;;;0.60;;
64674;SDS011;51090;51.512;11.332;2023-07-20T11:07:05;0.52;;;0.52;;
64674;SDS011;51090;51.512;11.332;2023-07-20T11:09:34;0.43;;;0.43;;
64674;SDS011;51090;51.512;11.332;2023-07-20T11:15:02;0.80;;;0.30;;
64674;SDS011;51090;51.512;11.332;2023-07-20T11:17:28;2.72;;;0.70;;
64674;SDS011;51090;51.512;11.332;2023-07-20T11:19:58;0.63;;;0.47;;
64674;SDS011;51090;51.512;11.332;2023-07-20T11:22:26;0.32;;;0.32;;
64674;SDS011;51090;51.512;11.332;2023-07-20T11:24:55;0.65;;;0.52;;
64674;SDS011;51090;51.512;11.332;2023-07-20T11:27:22;1.58;;;0.50;;
64674;SDS011;51090;51.512;11.332;2023-07-20T11:29:47;0.52;;;0.50;;
64674;SDS011;51090;51.512;11.332;2023-07-20T11:32:23;0.52;;;0.45;;
64674;SDS011;51090;51.512;11.332;2023-07-20T11:34:49;1.08;;;0.50;;
64674;SDS011;51090;51.512;11.332;2023-07-20T11:37:16;0.40;;;0.40;;
64674;SDS011;51090;51.512;11.332;2023-07-20T11:39:43;0.20;;;0.20;;
64674;SDS011;51090;51.512;11.332;2023-07-20T11:42:09;1.13;;;0.40;;
64674;SDS011;51090;51.512;11.332;2023-07-20T11:44:36;0.30;;;0.22;;
64674;SDS011;51090;51.512;11.332;2023-07-20T11:47:09;0.38;;;0.30;;
64674;SDS011;51090;51.512;11.332;2023-07-20T11:52:05;0.40;;;0.40;;
64674;SDS011;51090;51.512;11.332;2023-07-20T11:54:37;0.65;;;0.28;;
64674;SDS011;51090;51.512;11.332;2023-07-20T11:57:05;0.50;;;0.30;;
64674;SDS011;51090;51.512;11.332;2023-07-20T11:59:31;0.57;;;0.30;;
64674;SDS011;51090;51.512;11.332;2023-07-20T12:02:01;0.65;;;0.40;;
64674;SDS011;51090;51.512;11.332;2023-07-20T12:04:28;0.13;;;0.13;;
64674;SDS011;51090;51.512;11.332;2023-07-20T12:06:54;0.22;;;0.22;;
64674;SDS011;51090;51.512;11.332;2023-07-20T12:09:21;0.22;;;0.22;;
64674;SDS011;51090;51.512;11.332;2023-07-20T12:11:48;0.55;;;0.22;;
64674;SDS011;51090;51.512;11.332;2023-07-20T12:14:15;0.57;;;0.25;;
64674;SDS011;51090;51.512;11.332;2023-07-20T12:16:41;0.28;;;0.20;;
64674;SDS011;51090;51.512;11.332;2023-07-20T12:19:08;0.03;;;0.03;;
64674;SDS011;51090;51.512;11.332;2023-07-20T12:21:37;0.75;;;0.20;;
64674;SDS011;51090;51.512;11.332;2023-07-20T12:24:07;0.13;;;0.13;;
64674;SDS011;51090;51.512;11.332;2023-07-20T12:26:35;0.52;;;0.10;;
64674;SDS011;51090;51.512;11.332;2023-07-20T12:29:01;0.93;;;0.10;;
64674;SDS011;51090;51.512;11.332;2023-07-20T12:31:29;0.20;;;0.08;;
64674;SDS011;51090;51.512;11.332;2023-07-20T12:33:58;0.47;;;0.15;;
64674;SDS011;51090;51.512;11.332;2023-07-20T12:36:24;0.08;;;0.08;;
64674;SDS011;51090;51.512;11.332;2023-07-20T12:38:51;0.10;;;0.10;;
64674;SDS011;51090;51.512;11.332;2023-07-20T12:41:17;0.20;;;0.00;;
64674;SDS011;51090;51.512;11.332;2023-07-20T12:43:43;1.23;;;0.25;;
64674;SDS011;51090;51.512;11.332;2023-07-20T12:46:10;0.05;;;0.05;;
64674;SDS011;51090;51.512;11.332;2023-07-20T12:48:38;0.55;;;0.10;;
64674;SDS011;51090;51.512;11.332;2023-07-20T12:51:06;0.22;;;0.13;;
64674;SDS011;51090;51.512;11.332;2023-07-20T12:53:34;0.08;;;0.08;;
64674;SDS011;51090;51.512;11.332;2023-07-20T12:56:00;0.10;;;0.00;;
64674;SDS011;51090;51.512;11.332;2023-07-20T12:58:27;0.00;;;0.00;;
64674;SDS011;51090;51.512;11.332;2023-07-20T13:00:53;0.00;;;0.00;;
64674;SDS011;51090;51.512;11.332;2023-07-20T13:03:20;0.15;;;0.10;;
64674;SDS011;51090;51.512;11.332;2023-07-20T13:05:46;0.10;;;0.10;;
64674;SDS011;51090;51.512;11.332;2023-07-20T13:08:12;0.15;;;0.10;;
64674;SDS011;51090;51.512;11.332;2023-07-20T13:10:39;0.20;;;0.10;;
64674;SDS011;51090;51.512;11.332;2023-07-20T13:13:05;0.00;;;0.00;;
64674;SDS011;51090;51.512;11.332;2023-07-20T13:15:32;0.40;;;0.10;;
64674;SDS011;51090;51.512;11.332;2023-07-20T13:18:07;0.45;;;0.10;;
64674;SDS011;51090;51.512;11.332;2023-07-20T13:20:33;0.30;;;0.20;;
64674;SDS011;51090;51.512;11.332;2023-07-20T13:22:59;0.10;;;0.10;;
64674;SDS011;51090;51.512;11.332;2023-07-20T13:25:25;0.05;;;0.05;;
64674;SDS011;51090;51.512;11.332;2023-07-20T13:27:51;0.10;;;0.10;;
64674;SDS011;51090;51.512;11.332;2023-07-20T13:30:17;0.10;;;0.10;;
64674;SDS011;51090;51.512;11.332;2023-07-20T13:32:44;0.00;;;0.00;;
64674;SDS011;51090;51.512;11.332;2023-07-20T13:35:13;2.75;;;0.20;;
64674;SDS011;51090;51.512;11.332;2023-07-20T13:37:40;0.40;;;0.30;;
64674;SDS011;51090;51.512;11.332;2023-07-20T13:40:07;0.60;;;0.17;;
64674;SDS011;51090;51.512;11.332;2023-07-20T13:42:38;0.15;;;0.10;;
64674;SDS011;51090;51.512;11.332;2023-07-20T13:45:06;0.52;;;0.20;;
64674;SDS011;51090;51.512;11.332;2023-07-20T13:47:36;0.35;;;0.20;;
64674;SDS011;51090;51.512;11.332;2023-07-20T13:50:03;0.10;;;0.10;;
64674;SDS011;51090;51.512;11.332;2023-07-20T13:52:31;0.10;;;0.10;;
64674;SDS011;51090;51.512;11.332;2023-07-20T13:54:58;0.10;;;0.10;;
64674;SDS011;51090;51.512;11.332;2023-07-20T13:57:24;0.25;;;0.20;;
64674;SDS011;51090;51.512;11.332;2023-07-20T13:59:50;0.13;;;0.10;;
64674;SDS011;51090;51.512;11.332;2023-07-20T14:02:19;0.30;;;0.10;;
64674;SDS011;51090;51.512;11.332;2023-07-20T14:04:46;0.10;;;0.10;;
64674;SDS011;51090;51.512;11.332;2023-07-20T14:07:13;0.10;;;0.10;;
64674;SDS011;51090;51.512;11.332;2023-07-20T14:09:39;0.55;;;0.20;;
64674;SDS011;51090;51.512;11.332;2023-07-20T14:12:05;1.33;;;0.30;;
64674;SDS011;51090;51.512;11.332;2023-07-20T14:14:31;0.38;;;0.20;;
64674;SDS011;51090;51.512;11.332;2023-07-20T14:16:58;0.20;;;0.20;;
64674;SDS011;51090;51.512;11.332;2023-07-20T14:19:24;0.30;;;0.20;;
64674;SDS011;51090;51.512;11.332;2023-07-20T14:21:51;1.40;;;0.20;;
64674;SDS011;51090;51.512;11.332;2023-07-20T14:24:17;0.15;;;0.10;;
64674;SDS011;51090;51.512;11.332;2023-07-20T14:26:44;0.90;;;0.20;;
64674;SDS011;51090;51.512;11.332;2023-07-20T14:29:09;0.10;;;0.10;;
64674;SDS011;51090;51.512;11.332;2023-07-20T14:31:36;0.10;;;0.10;;
64674;SDS011;51090;51.512;11.332;2023-07-20T14:34:03;0.30;;;0.20;;
64674;SDS011;51090;51.512;11.332;2023-07-20T14:36:28;0.17;;;0.17;;
64674;SDS011;51090;51.512;11.332;2023-07-20T14:38:54;0.25;;;0.20;;
64674;SDS011;51090;51.512;11.332;2023-07-20T14:41:20;0.10;;;0.10;;
64674;SDS011;51090;51.512;11.332;2023-07-20T14:43:49;0.10;;;0.10;;
64674;SDS011;51090;51.512;11.332;2023-07-20T14:46:18;0.45;;;0.20;;
64674;SDS011;51090;51.512;11.332;2023-07-20T14:48:45;0.17;;;0.10;;
64674;SDS011;51090;51.512;11.332;2023-07-20T14:51:11;0.20;;;0.20;;
64674;SDS011;51090;51.512;11.332;2023-07-20T14:53:37;0.20;;;0.20;;
64674;SDS011;51090;51.512;11.332;2023-07-20T14:56:04;0.10;;;0.10;;
64674;SDS011;51090;51.512;11.332;2023-07-20T14:58:31;1.23;;;0.20;;
64674;SDS011;51090;51.512;11.332;2023-07-20T15:00:57;0.45;;;0.10;;
64674;SDS011;51090;51.512;11.332;2023-07-20T15:03:23;0.00;;;0.00;;
64674;SDS011;51090;51.512;11.332;2023-07-20T15:05:49;0.40;;;0.30;;
64674;SDS011;51090;51.512;11.332;2023-07-20T15:08:19;0.10;;;0.10;;
64674;SDS011;51090;51.512;11.332;2023-07-20T15:10:45;0.90;;;0.50;;
64674;SDS011;51090;51.512;11.332;2023-07-20T15:13:12;1.45;;;0.10;;
64674;SDS011;51090;51.512;11.332;2023-07-20T15:15:38;0.22;;;0.15;;
64674;SDS011;51090;51.512;11.332;2023-07-20T15:18:03;0.03;;;0.03;;
64674;SDS011;51090;51.512;11.332;2023-07-20T15:20:29;0.15;;;0.15;;
64674;SDS011;51090;51.512;11.332;2023-07-20T15:22:57;0.13;;;0.10;;
64674;SDS011;51090;51.512;11.332;2023-07-20T15:25:22;0.65;;;0.30;;
64674;SDS011;51090;51.512;11.332;2023-07-20T15:27:48;0.35;;;0.20;;
64674;SDS011;51090;51.512;11.332;2023-07-20T15:30:14;0.25;;;0.13;;
64674;SDS011;51090;51.512;11.332;2023-07-20T15:32:42;0.25;;;0.10;;